sensor_id;sensor_type;location;lat;lon;timestamp;temperature;humidity
78461;SHT31;67755;51.986;5.696;2023-04-25T00:01:13;12.0;56.4
78461;SHT31;67755;51.986;5.696;2023-04-25T00:03:44;12.0;56.7
78461;SHT31;67755;51.986;5.696;2023-04-25T00:06:14;12.0;56.7
78461;SHT31;67755;51.986;5.696;2023-04-25T00:08:45;12.0;56.9
78461;SHT31;67755;51.986;5.696;2023-04-25T00:11:15;11.9;56.7
78461;SHT31;67755;51.986;5.696;2023-04-25T00:13:44;11.9;56.8
78461;SHT31;67755;51.986;5.696;2023-04-25T00:16:15;11.9;56.9
78461;SHT31;67755;51.986;5.696;2023-04-25T00:18:46;11.9;56.8
78461;SHT31;67755;51.986;5.696;2023-04-25T00:21:19;11.9;56.6
78461;SHT31;67755;51.986;5.696;2023-04-25T00:23:52;11.8;56.9
78461;SHT31;67755;51.986;5.696;2023-04-25T00:26:22;11.8;56.8
78461;SHT31;67755;51.986;5.696;2023-04-25T00:28:54;11.8;56.8
78461;SHT31;67755;51.986;5.696;2023-04-25T00:31:25;11.8;56.9
78461;SHT31;67755;51.986;5.696;2023-04-25T00:33:56;11.7;56.7
78461;SHT31;67755;51.986;5.696;2023-04-25T00:36:26;11.7;56.8
78461;SHT31;67755;51.986;5.696;2023-04-25T00:38:55;11.7;56.6
78461;SHT31;67755;51.986;5.696;2023-04-25T00:41:26;11.7;56.5
78461;SHT31;67755;51.986;5.696;2023-04-25T00:43:59;11.7;56.4
78461;SHT31;67755;51.986;5.696;2023-04-25T00:46:31;11.6;56.5
78461;SHT31;67755;51.986;5.696;2023-04-25T00:49:02;11.6;56.2
78461;SHT31;67755;51.986;5.696;2023-04-25T00:51:32;11.6;56.5
78461;SHT31;67755;51.986;5.696;2023-04-25T00:54:02;11.6;56.2
78461;SHT31;67755;51.986;5.696;2023-04-25T00:56:32;11.6;55.9
78461;SHT31;67755;51.986;5.696;2023-04-25T00:59:03;11.5;55.9
78461;SHT31;67755;51.986;5.696;2023-04-25T01:01:33;11.5;56.0
78461;SHT31;67755;51.986;5.696;2023-04-25T01:04:02;11.5;55.9
78461;SHT31;67755;51.986;5.696;2023-04-25T01:06:32;11.5;56.1
78461;SHT31;67755;51.986;5.696;2023-04-25T01:09:02;11.4;56.2
78461;SHT31;67755;51.986;5.696;2023-04-25T01:11:33;11.4;56.7
78461;SHT31;67755;51.986;5.696;2023-04-25T01:14:03;11.4;56.9
78461;SHT31;67755;51.986;5.696;2023-04-25T01:16:33;11.4;56.9
78461;SHT31;67755;51.986;5.696;2023-04-25T01:19:05;11.4;57.1
78461;SHT31;67755;51.986;5.696;2023-04-25T01:21:36;11.4;57.3
78461;SHT31;67755;51.986;5.696;2023-04-25T01:24:06;11.4;57.5
78461;SHT31;67755;51.986;5.696;2023-04-25T01:26:36;11.4;57.7
78461;SHT31;67755;51.986;5.696;2023-04-25T01:29:08;11.3;57.8
78461;SHT31;67755;51.986;5.696;2023-04-25T01:31:39;11.3;57.7
78461;SHT31;67755;51.986;5.696;2023-04-25T01:34:09;11.3;58.0
78461;SHT31;67755;51.986;5.696;2023-04-25T01:36:39;11.3;58.0
78461;SHT31;67755;51.986;5.696;2023-04-25T01:39:09;11.3;58.2
78461;SHT31;67755;51.986;5.696;2023-04-25T01:41:39;11.3;58.0
78461;SHT31;67755;51.986;5.696;2023-04-25T01:44:09;11.3;58.1
78461;SHT31;67755;51.986;5.696;2023-04-25T01:46:39;11.3;57.8
78461;SHT31;67755;51.986;5.696;2023-04-25T01:49:08;11.3;57.7
78461;SHT31;67755;51.986;5.696;2023-04-25T01:51:38;11.3;57.8
78461;SHT31;67755;51.986;5.696;2023-04-25T01:54:10;11.3;57.9
78461;SHT31;67755;51.986;5.696;2023-04-25T01:56:40;11.3;57.7
78461;SHT31;67755;51.986;5.696;2023-04-25T01:59:09;11.3;57.6
78461;SHT31;67755;51.986;5.696;2023-04-25T02:01:39;11.3;57.6
78461;SHT31;67755;51.986;5.696;2023-04-25T02:04:08;11.3;57.7
78461;SHT31;67755;51.986;5.696;2023-04-25T02:06:38;11.3;57.7
78461;SHT31;67755;51.986;5.696;2023-04-25T02:09:08;11.3;57.5
78461;SHT31;67755;51.986;5.696;2023-04-25T02:11:37;11.3;57.3
78461;SHT31;67755;51.986;5.696;2023-04-25T02:14:07;11.3;57.0
78461;SHT31;67755;51.986;5.696;2023-04-25T02:16:37;11.3;56.8
78461;SHT31;67755;51.986;5.696;2023-04-25T02:19:07;11.3;56.4
78461;SHT31;67755;51.986;5.696;2023-04-25T02:21:37;11.3;56.4
78461;SHT31;67755;51.986;5.696;2023-04-25T02:24:08;11.2;56.4
78461;SHT31;67755;51.986;5.696;2023-04-25T02:26:38;11.2;56.3
78461;SHT31;67755;51.986;5.696;2023-04-25T02:29:07;11.2;56.2
78461;SHT31;67755;51.986;5.696;2023-04-25T02:31:37;11.2;56.1
78461;SHT31;67755;51.986;5.696;2023-04-25T02:34:06;11.2;56.0
78461;SHT31;67755;51.986;5.696;2023-04-25T02:36:36;11.2;55.9
78461;SHT31;67755;51.986;5.696;2023-04-25T02:39:06;11.1;55.7
78461;SHT31;67755;51.986;5.696;2023-04-25T02:41:35;11.1;55.5
78461;SHT31;67755;51.986;5.696;2023-04-25T02:44:05;11.1;55.5
78461;SHT31;67755;51.986;5.696;2023-04-25T02:46:34;11.1;55.5
78461;SHT31;67755;51.986;5.696;2023-04-25T02:49:04;11.1;55.5
78461;SHT31;67755;51.986;5.696;2023-04-25T02:51:34;11.0;55.2
78461;SHT31;67755;51.986;5.696;2023-04-25T02:54:04;11.0;55.4
78461;SHT31;67755;51.986;5.696;2023-04-25T02:56:34;11.0;55.4
78461;SHT31;67755;51.986;5.696;2023-04-25T02:59:03;10.9;55.1
78461;SHT31;67755;51.986;5.696;2023-04-25T03:01:33;10.9;55.2
78461;SHT31;67755;51.986;5.696;2023-04-25T03:04:02;10.9;55.4
78461;SHT31;67755;51.986;5.696;2023-04-25T03:06:32;10.9;55.3
78461;SHT31;67755;51.986;5.696;2023-04-25T03:09:02;10.8;55.2
78461;SHT31;67755;51.986;5.696;2023-04-25T03:11:31;10.8;55.2
78461;SHT31;67755;51.986;5.696;2023-04-25T03:14:01;10.8;55.1
78461;SHT31;67755;51.986;5.696;2023-04-25T03:16:30;10.8;54.8
78461;SHT31;67755;51.986;5.696;2023-04-25T03:19:00;10.7;55.1
78461;SHT31;67755;51.986;5.696;2023-04-25T03:21:30;10.7;55.0
78461;SHT31;67755;51.986;5.696;2023-04-25T03:24:02;10.7;55.0
78461;SHT31;67755;51.986;5.696;2023-04-25T03:26:32;10.7;55.1
78461;SHT31;67755;51.986;5.696;2023-04-25T03:29:01;10.6;55.7
78461;SHT31;67755;51.986;5.696;2023-04-25T03:31:31;10.6;56.1
78461;SHT31;67755;51.986;5.696;2023-04-25T03:34:01;10.6;56.1
78461;SHT31;67755;51.986;5.696;2023-04-25T03:36:30;10.6;56.2
78461;SHT31;67755;51.986;5.696;2023-04-25T03:39:00;10.6;56.5
78461;SHT31;67755;51.986;5.696;2023-04-25T03:41:30;10.6;56.8
78461;SHT31;67755;51.986;5.696;2023-04-25T03:43:59;10.6;56.8
78461;SHT31;67755;51.986;5.696;2023-04-25T03:46:29;10.5;56.8
78461;SHT31;67755;51.986;5.696;2023-04-25T03:48:59;10.5;57.0
78461;SHT31;67755;51.986;5.696;2023-04-25T03:51:28;10.5;56.5
78461;SHT31;67755;51.986;5.696;2023-04-25T03:53:58;10.5;56.4
78461;SHT31;67755;51.986;5.696;2023-04-25T03:56:29;10.5;56.3
78461;SHT31;67755;51.986;5.696;2023-04-25T03:58:59;10.5;56.0
78461;SHT31;67755;51.986;5.696;2023-04-25T04:01:29;10.5;56.0
78461;SHT31;67755;51.986;5.696;2023-04-25T04:03:59;10.5;56.0
78461;SHT31;67755;51.986;5.696;2023-04-25T04:06:29;10.5;55.9
78461;SHT31;67755;51.986;5.696;2023-04-25T04:08:59;10.5;56.0
78461;SHT31;67755;51.986;5.696;2023-04-25T04:11:31;10.5;55.8
78461;SHT31;67755;51.986;5.696;2023-04-25T04:14:01;10.5;56.0
78461;SHT31;67755;51.986;5.696;2023-04-25T04:16:30;10.5;55.7
78461;SHT31;67755;51.986;5.696;2023-04-25T04:19:00;10.4;55.8
78461;SHT31;67755;51.986;5.696;2023-04-25T04:21:29;10.4;55.8
78461;SHT31;67755;51.986;5.696;2023-04-25T04:24:00;10.4;56.2
78461;SHT31;67755;51.986;5.696;2023-04-25T04:26:31;10.4;56.4
78461;SHT31;67755;51.986;5.696;2023-04-25T04:29:01;10.4;56.6
78461;SHT31;67755;51.986;5.696;2023-04-25T04:31:31;10.4;56.8
78461;SHT31;67755;51.986;5.696;2023-04-25T04:34:01;10.4;56.7
78461;SHT31;67755;51.986;5.696;2023-04-25T04:36:31;10.4;56.5
78461;SHT31;67755;51.986;5.696;2023-04-25T04:39:01;10.4;56.9
78461;SHT31;67755;51.986;5.696;2023-04-25T04:41:31;10.4;57.1
78461;SHT31;67755;51.986;5.696;2023-04-25T04:44:00;10.4;57.3
78461;SHT31;67755;51.986;5.696;2023-04-25T04:46:30;10.4;57.2
78461;SHT31;67755;51.986;5.696;2023-04-25T04:49:06;10.4;57.4
78461;SHT31;67755;51.986;5.696;2023-04-25T04:51:36;10.4;57.4
78461;SHT31;67755;51.986;5.696;2023-04-25T04:54:06;10.4;57.2
78461;SHT31;67755;51.986;5.696;2023-04-25T04:56:36;10.4;57.5
78461;SHT31;67755;51.986;5.696;2023-04-25T04:59:05;10.4;57.6
78461;SHT31;67755;51.986;5.696;2023-04-25T05:01:37;10.4;58.0
78461;SHT31;67755;51.986;5.696;2023-04-25T05:04:09;10.4;57.8
78461;SHT31;67755;51.986;5.696;2023-04-25T05:06:40;10.4;58.4
78461;SHT31;67755;51.986;5.696;2023-04-25T05:09:11;10.4;58.5
78461;SHT31;67755;51.986;5.696;2023-04-25T05:11:41;10.4;58.9
78461;SHT31;67755;51.986;5.696;2023-04-25T05:14:10;10.5;59.1
78461;SHT31;67755;51.986;5.696;2023-04-25T05:16:40;10.5;59.2
78461;SHT31;67755;51.986;5.696;2023-04-25T05:19:10;10.5;59.2
78461;SHT31;67755;51.986;5.696;2023-04-25T05:21:39;10.5;59.6
78461;SHT31;67755;51.986;5.696;2023-04-25T05:24:10;10.5;59.8
78461;SHT31;67755;51.986;5.696;2023-04-25T05:26:40;10.6;59.6
78461;SHT31;67755;51.986;5.696;2023-04-25T05:29:09;10.6;59.7
78461;SHT31;67755;51.986;5.696;2023-04-25T05:31:39;10.6;59.7
78461;SHT31;67755;51.986;5.696;2023-04-25T05:34:08;10.6;60.1
78461;SHT31;67755;51.986;5.696;2023-04-25T05:36:38;10.6;59.1
78461;SHT31;67755;51.986;5.696;2023-04-25T05:39:07;10.7;58.3
78461;SHT31;67755;51.986;5.696;2023-04-25T05:41:37;10.7;59.8
78461;SHT31;67755;51.986;5.696;2023-04-25T05:44:07;10.7;58.9
78461;SHT31;67755;51.986;5.696;2023-04-25T05:46:37;10.8;59.2
78461;SHT31;67755;51.986;5.696;2023-04-25T05:49:09;10.8;59.3
78461;SHT31;67755;51.986;5.696;2023-04-25T05:51:38;10.8;59.2
78461;SHT31;67755;51.986;5.696;2023-04-25T05:54:08;10.9;59.2
78461;SHT31;67755;51.986;5.696;2023-04-25T05:56:38;10.9;58.4
78461;SHT31;67755;51.986;5.696;2023-04-25T05:59:08;10.9;57.7
78461;SHT31;67755;51.986;5.696;2023-04-25T06:01:38;10.9;58.6
78461;SHT31;67755;51.986;5.696;2023-04-25T06:04:07;11.0;58.9
78461;SHT31;67755;51.986;5.696;2023-04-25T06:06:37;11.0;59.4
78461;SHT31;67755;51.986;5.696;2023-04-25T06:09:06;11.0;59.1
78461;SHT31;67755;51.986;5.696;2023-04-25T06:11:36;11.1;58.0
78461;SHT31;67755;51.986;5.696;2023-04-25T06:14:06;11.1;57.2
78461;SHT31;67755;51.986;5.696;2023-04-25T06:16:36;11.1;56.9
78461;SHT31;67755;51.986;5.696;2023-04-25T06:19:05;11.2;55.6
78461;SHT31;67755;51.986;5.696;2023-04-25T06:21:35;11.2;55.7
78461;SHT31;67755;51.986;5.696;2023-04-25T06:24:05;11.2;56.2
78461;SHT31;67755;51.986;5.696;2023-04-25T06:26:35;11.3;56.7
78461;SHT31;67755;51.986;5.696;2023-04-25T06:29:04;11.3;56.8
78461;SHT31;67755;51.986;5.696;2023-04-25T06:31:34;11.3;56.5
78461;SHT31;67755;51.986;5.696;2023-04-25T06:34:03;11.4;56.1
78461;SHT31;67755;51.986;5.696;2023-04-25T06:36:33;11.4;56.4
78461;SHT31;67755;51.986;5.696;2023-04-25T06:39:03;11.4;55.9
78461;SHT31;67755;51.986;5.696;2023-04-25T06:41:33;11.5;55.9
78461;SHT31;67755;51.986;5.696;2023-04-25T06:44:02;11.5;54.8
78461;SHT31;67755;51.986;5.696;2023-04-25T06:46:32;11.6;54.3
78461;SHT31;67755;51.986;5.696;2023-04-25T06:49:02;11.6;55.0
78461;SHT31;67755;51.986;5.696;2023-04-25T06:51:32;11.6;56.0
78461;SHT31;67755;51.986;5.696;2023-04-25T06:54:03;11.6;55.0
78461;SHT31;67755;51.986;5.696;2023-04-25T06:56:33;11.7;55.2
78461;SHT31;67755;51.986;5.696;2023-04-25T06:59:03;11.7;56.4
78461;SHT31;67755;51.986;5.696;2023-04-25T07:01:33;11.7;55.8
78461;SHT31;67755;51.986;5.696;2023-04-25T07:04:02;11.8;56.2
78461;SHT31;67755;51.986;5.696;2023-04-25T07:06:32;11.8;54.9
78461;SHT31;67755;51.986;5.696;2023-04-25T07:09:05;11.8;55.4
78461;SHT31;67755;51.986;5.696;2023-04-25T07:11:36;11.9;54.1
78461;SHT31;67755;51.986;5.696;2023-04-25T07:14:10;11.9;54.5
78461;SHT31;67755;51.986;5.696;2023-04-25T07:16:40;11.9;53.4
78461;SHT31;67755;51.986;5.696;2023-04-25T07:19:10;12.0;53.5
78461;SHT31;67755;51.986;5.696;2023-04-25T07:21:39;12.0;53.1
78461;SHT31;67755;51.986;5.696;2023-04-25T07:24:09;12.1;53.0
78461;SHT31;67755;51.986;5.696;2023-04-25T07:26:39;12.1;53.9
78461;SHT31;67755;51.986;5.696;2023-04-25T07:29:08;12.2;51.0
78461;SHT31;67755;51.986;5.696;2023-04-25T07:31:38;12.2;51.6
78461;SHT31;67755;51.986;5.696;2023-04-25T07:34:07;12.2;53.0
78461;SHT31;67755;51.986;5.696;2023-04-25T07:36:37;12.3;52.5
78461;SHT31;67755;51.986;5.696;2023-04-25T07:39:07;12.3;52.5
78461;SHT31;67755;51.986;5.696;2023-04-25T07:41:38;12.4;53.3
78461;SHT31;67755;51.986;5.696;2023-04-25T07:44:07;12.4;52.5
78461;SHT31;67755;51.986;5.696;2023-04-25T07:46:37;12.4;52.2
78461;SHT31;67755;51.986;5.696;2023-04-25T07:49:08;12.5;52.3
78461;SHT31;67755;51.986;5.696;2023-04-25T07:51:38;12.5;53.5
78461;SHT31;67755;51.986;5.696;2023-04-25T07:54:12;12.6;52.7
78461;SHT31;67755;51.986;5.696;2023-04-25T07:56:41;12.6;52.7
78461;SHT31;67755;51.986;5.696;2023-04-25T07:59:11;12.6;51.9
78461;SHT31;67755;51.986;5.696;2023-04-25T08:01:40;12.7;51.8
78461;SHT31;67755;51.986;5.696;2023-04-25T08:04:10;12.7;51.8
78461;SHT31;67755;51.986;5.696;2023-04-25T08:06:40;12.7;51.9
78461;SHT31;67755;51.986;5.696;2023-04-25T08:09:10;12.7;51.8
78461;SHT31;67755;51.986;5.696;2023-04-25T08:11:40;12.8;50.7
78461;SHT31;67755;51.986;5.696;2023-04-25T08:14:11;12.8;51.5
78461;SHT31;67755;51.986;5.696;2023-04-25T08:16:41;12.9;50.4
78461;SHT31;67755;51.986;5.696;2023-04-25T08:19:11;12.9;50.2
78461;SHT31;67755;51.986;5.696;2023-04-25T08:21:40;13.0;50.5
78461;SHT31;67755;51.986;5.696;2023-04-25T08:24:10;13.1;48.3
78461;SHT31;67755;51.986;5.696;2023-04-25T08:26:39;13.2;48.3
78461;SHT31;67755;51.986;5.696;2023-04-25T08:29:09;13.2;48.1
78461;SHT31;67755;51.986;5.696;2023-04-25T08:31:41;13.2;47.8
78461;SHT31;67755;51.986;5.696;2023-04-25T08:34:10;13.3;48.3
78461;SHT31;67755;51.986;5.696;2023-04-25T08:36:43;13.3;47.1
78461;SHT31;67755;51.986;5.696;2023-04-25T08:39:12;13.3;47.8
78461;SHT31;67755;51.986;5.696;2023-04-25T08:41:42;13.3;48.3
78461;SHT31;67755;51.986;5.696;2023-04-25T08:44:13;13.3;47.9
78461;SHT31;67755;51.986;5.696;2023-04-25T08:46:47;13.3;48.7
78461;SHT31;67755;51.986;5.696;2023-04-25T08:49:18;13.4;47.4
78461;SHT31;67755;51.986;5.696;2023-04-25T08:51:51;13.4;47.4
78461;SHT31;67755;51.986;5.696;2023-04-25T08:54:23;13.4;45.9
78461;SHT31;67755;51.986;5.696;2023-04-25T08:57:00;13.5;46.6
78461;SHT31;67755;51.986;5.696;2023-04-25T08:59:32;13.5;45.2
78461;SHT31;67755;51.986;5.696;2023-04-25T09:02:03;13.6;45.5
78461;SHT31;67755;51.986;5.696;2023-04-25T09:04:32;13.6;45.6
78461;SHT31;67755;51.986;5.696;2023-04-25T09:07:06;13.7;43.2
78461;SHT31;67755;51.986;5.696;2023-04-25T09:09:35;13.7;45.1
78461;SHT31;67755;51.986;5.696;2023-04-25T09:12:05;13.7;45.5
78461;SHT31;67755;51.986;5.696;2023-04-25T09:14:35;13.6;48.3
78461;SHT31;67755;51.986;5.696;2023-04-25T09:17:05;13.6;47.8
78461;SHT31;67755;51.986;5.696;2023-04-25T09:19:36;13.6;47.4
78461;SHT31;67755;51.986;5.696;2023-04-25T09:22:08;13.5;48.7
78461;SHT31;67755;51.986;5.696;2023-04-25T09:24:39;13.5;48.2
78461;SHT31;67755;51.986;5.696;2023-04-25T09:27:13;13.5;49.4
78461;SHT31;67755;51.986;5.696;2023-04-25T09:29:46;13.5;48.9
78461;SHT31;67755;51.986;5.696;2023-04-25T09:32:18;13.5;49.5
78461;SHT31;67755;51.986;5.696;2023-04-25T09:34:49;13.5;49.3
78461;SHT31;67755;51.986;5.696;2023-04-25T09:37:21;13.5;48.1
78461;SHT31;67755;51.986;5.696;2023-04-25T09:39:53;13.6;50.2
78461;SHT31;67755;51.986;5.696;2023-04-25T09:42:25;13.6;47.5
78461;SHT31;67755;51.986;5.696;2023-04-25T09:44:56;13.6;49.2
78461;SHT31;67755;51.986;5.696;2023-04-25T09:47:26;13.7;48.0
78461;SHT31;67755;51.986;5.696;2023-04-25T09:49:56;13.7;45.9
78461;SHT31;67755;51.986;5.696;2023-04-25T09:52:26;13.8;47.6
78461;SHT31;67755;51.986;5.696;2023-04-25T09:54:55;13.9;45.6
78461;SHT31;67755;51.986;5.696;2023-04-25T09:57:25;14.0;47.1
78461;SHT31;67755;51.986;5.696;2023-04-25T09:59:55;14.1;45.9
78461;SHT31;67755;51.986;5.696;2023-04-25T10:02:27;14.2;45.0
78461;SHT31;67755;51.986;5.696;2023-04-25T10:04:58;14.3;43.7
78461;SHT31;67755;51.986;5.696;2023-04-25T10:07:31;14.3;42.1
78461;SHT31;67755;51.986;5.696;2023-04-25T10:10:03;14.4;44.5
78461;SHT31;67755;51.986;5.696;2023-04-25T10:12:33;14.5;40.7
78461;SHT31;67755;51.986;5.696;2023-04-25T10:15:04;14.5;41.2
78461;SHT31;67755;51.986;5.696;2023-04-25T10:17:37;14.6;40.5
78461;SHT31;67755;51.986;5.696;2023-04-25T10:20:09;14.6;41.7
78461;SHT31;67755;51.986;5.696;2023-04-25T10:22:41;14.6;41.5
78461;SHT31;67755;51.986;5.696;2023-04-25T10:25:12;14.6;42.2
78461;SHT31;67755;51.986;5.696;2023-04-25T10:27:43;14.6;42.2
78461;SHT31;67755;51.986;5.696;2023-04-25T10:30:15;14.7;42.9
78461;SHT31;67755;51.986;5.696;2023-04-25T10:32:45;14.7;44.6
78461;SHT31;67755;51.986;5.696;2023-04-25T10:35:18;14.7;41.9
78461;SHT31;67755;51.986;5.696;2023-04-25T10:38:11;14.7;41.9
78461;SHT31;67755;51.986;5.696;2023-04-25T10:40:41;14.7;41.7
78461;SHT31;67755;51.986;5.696;2023-04-25T10:43:39;14.6;41.1
78461;SHT31;67755;51.986;5.696;2023-04-25T10:46:16;14.6;41.4
78461;SHT31;67755;51.986;5.696;2023-04-25T10:48:49;14.6;41.4
78461;SHT31;67755;51.986;5.696;2023-04-25T10:51:21;14.7;40.8
78461;SHT31;67755;51.986;5.696;2023-04-25T10:54:02;14.7;42.8
78461;SHT31;67755;51.986;5.696;2023-04-25T10:56:33;14.7;40.5
78461;SHT31;67755;51.986;5.696;2023-04-25T10:59:10;14.8;42.3
78461;SHT31;67755;51.986;5.696;2023-04-25T11:01:42;14.8;44.3
78461;SHT31;67755;51.986;5.696;2023-04-25T11:04:22;14.8;41.3
78461;SHT31;67755;51.986;5.696;2023-04-25T11:07:07;14.9;40.6
78461;SHT31;67755;51.986;5.696;2023-04-25T11:09:45;14.9;40.0
78461;SHT31;67755;51.986;5.696;2023-04-25T11:12:15;15.0;41.0
78461;SHT31;67755;51.986;5.696;2023-04-25T11:14:47;15.0;42.5
78461;SHT31;67755;51.986;5.696;2023-04-25T11:17:20;15.1;39.9
78461;SHT31;67755;51.986;5.696;2023-04-25T11:19:50;15.2;38.0
78461;SHT31;67755;51.986;5.696;2023-04-25T11:22:21;15.2;39.0
78461;SHT31;67755;51.986;5.696;2023-04-25T11:24:51;15.3;40.0
78461;SHT31;67755;51.986;5.696;2023-04-25T11:27:21;15.4;39.8
78461;SHT31;67755;51.986;5.696;2023-04-25T11:29:52;15.4;39.9
78461;SHT31;67755;51.986;5.696;2023-04-25T11:32:22;15.4;39.9
78461;SHT31;67755;51.986;5.696;2023-04-25T11:34:52;15.5;39.5
78461;SHT31;67755;51.986;5.696;2023-04-25T11:37:22;15.5;38.5
78461;SHT31;67755;51.986;5.696;2023-04-25T11:39:52;15.6;38.1
78461;SHT31;67755;51.986;5.696;2023-04-25T11:42:24;15.6;37.4
78461;SHT31;67755;51.986;5.696;2023-04-25T11:44:54;15.7;37.6
78461;SHT31;67755;51.986;5.696;2023-04-25T11:47:30;15.7;37.4
78461;SHT31;67755;51.986;5.696;2023-04-25T11:50:01;15.7;38.8
78461;SHT31;67755;51.986;5.696;2023-04-25T11:52:38;15.8;37.7
78461;SHT31;67755;51.986;5.696;2023-04-25T11:55:10;15.8;38.0
78461;SHT31;67755;51.986;5.696;2023-04-25T11:57:43;15.8;38.5
78461;SHT31;67755;51.986;5.696;2023-04-25T12:00:16;15.8;39.5
78461;SHT31;67755;51.986;5.696;2023-04-25T12:02:47;15.7;39.5
78461;SHT31;67755;51.986;5.696;2023-04-25T12:05:17;15.6;40.5
78461;SHT31;67755;51.986;5.696;2023-04-25T12:07:47;15.5;39.5
78461;SHT31;67755;51.986;5.696;2023-04-25T12:10:18;15.4;40.2
78461;SHT31;67755;51.986;5.696;2023-04-25T12:12:48;15.3;40.1
78461;SHT31;67755;51.986;5.696;2023-04-25T12:15:23;15.2;41.2
78461;SHT31;67755;51.986;5.696;2023-04-25T12:17:54;15.1;42.2
78461;SHT31;67755;51.986;5.696;2023-04-25T12:20:25;15.1;40.2
78461;SHT31;67755;51.986;5.696;2023-04-25T12:22:57;15.0;40.5
78461;SHT31;67755;51.986;5.696;2023-04-25T12:25:38;15.0;40.1
78461;SHT31;67755;51.986;5.696;2023-04-25T12:28:14;14.9;39.0
78461;SHT31;67755;51.986;5.696;2023-04-25T12:31:00;14.9;39.9
78461;SHT31;67755;51.986;5.696;2023-04-25T12:33:31;14.8;40.2
78461;SHT31;67755;51.986;5.696;2023-04-25T12:36:03;14.8;38.5
78461;SHT31;67755;51.986;5.696;2023-04-25T12:38:39;14.8;38.3
78461;SHT31;67755;51.986;5.696;2023-04-25T12:41:09;14.8;39.1
78461;SHT31;67755;51.986;5.696;2023-04-25T12:43:41;14.8;39.4
78461;SHT31;67755;51.986;5.696;2023-04-25T12:46:10;14.8;39.3
78461;SHT31;67755;51.986;5.696;2023-04-25T12:48:40;14.8;40.2
78461;SHT31;67755;51.986;5.696;2023-04-25T12:51:11;14.8;40.7
78461;SHT31;67755;51.986;5.696;2023-04-25T12:53:41;14.8;40.1
78461;SHT31;67755;51.986;5.696;2023-04-25T12:56:11;14.9;41.7
78461;SHT31;67755;51.986;5.696;2023-04-25T12:58:42;14.9;41.4
78461;SHT31;67755;51.986;5.696;2023-04-25T13:01:12;15.0;40.6
78461;SHT31;67755;51.986;5.696;2023-04-25T13:03:42;15.0;41.5
78461;SHT31;67755;51.986;5.696;2023-04-25T13:06:12;15.0;40.1
78461;SHT31;67755;51.986;5.696;2023-04-25T13:08:42;15.0;39.9
78461;SHT31;67755;51.986;5.696;2023-04-25T13:11:12;15.1;39.7
78461;SHT31;67755;51.986;5.696;2023-04-25T13:13:42;15.1;39.3
78461;SHT31;67755;51.986;5.696;2023-04-25T13:16:12;15.1;40.0
78461;SHT31;67755;51.986;5.696;2023-04-25T13:18:44;15.2;38.6
78461;SHT31;67755;51.986;5.696;2023-04-25T13:21:13;15.3;40.9
78461;SHT31;67755;51.986;5.696;2023-04-25T13:23:43;15.3;39.5
78461;SHT31;67755;51.986;5.696;2023-04-25T13:26:14;15.4;39.5
78461;SHT31;67755;51.986;5.696;2023-04-25T13:28:43;15.5;37.5
78461;SHT31;67755;51.986;5.696;2023-04-25T13:31:15;15.6;38.9
78461;SHT31;67755;51.986;5.696;2023-04-25T13:33:45;15.6;38.4
78461;SHT31;67755;51.986;5.696;2023-04-25T13:36:14;15.7;37.5
78461;SHT31;67755;51.986;5.696;2023-04-25T13:38:44;15.7;37.0
78461;SHT31;67755;51.986;5.696;2023-04-25T13:41:15;15.8;37.6
78461;SHT31;67755;51.986;5.696;2023-04-25T13:43:47;15.8;37.2
78461;SHT31;67755;51.986;5.696;2023-04-25T13:46:16;15.9;36.9
78461;SHT31;67755;51.986;5.696;2023-04-25T13:48:46;15.9;36.1
78461;SHT31;67755;51.986;5.696;2023-04-25T13:51:17;15.9;36.5
78461;SHT31;67755;51.986;5.696;2023-04-25T13:53:48;16.0;34.8
78461;SHT31;67755;51.986;5.696;2023-04-25T13:56:18;16.0;34.8
78461;SHT31;67755;51.986;5.696;2023-04-25T13:58:47;15.9;35.7
78461;SHT31;67755;51.986;5.696;2023-04-25T14:01:17;15.9;35.7
78461;SHT31;67755;51.986;5.696;2023-04-25T14:03:48;15.9;37.0
78461;SHT31;67755;51.986;5.696;2023-04-25T14:06:18;15.8;36.9
78461;SHT31;67755;51.986;5.696;2023-04-25T14:08:50;15.7;37.0
78461;SHT31;67755;51.986;5.696;2023-04-25T14:11:20;15.7;37.9
78461;SHT31;67755;51.986;5.696;2023-04-25T14:13:49;15.6;38.1
78461;SHT31;67755;51.986;5.696;2023-04-25T14:16:19;15.5;37.4
78461;SHT31;67755;51.986;5.696;2023-04-25T14:18:50;15.5;37.8
78461;SHT31;67755;51.986;5.696;2023-04-25T14:21:19;15.5;35.5
78461;SHT31;67755;51.986;5.696;2023-04-25T14:23:49;15.4;36.2
78461;SHT31;67755;51.986;5.696;2023-04-25T14:26:19;15.4;37.4
78461;SHT31;67755;51.986;5.696;2023-04-25T14:28:50;15.4;37.6
78461;SHT31;67755;51.986;5.696;2023-04-25T14:31:20;15.4;37.7
78461;SHT31;67755;51.986;5.696;2023-04-25T14:33:51;15.4;38.3
78461;SHT31;67755;51.986;5.696;2023-04-25T14:36:23;15.4;36.9
78461;SHT31;67755;51.986;5.696;2023-04-25T14:38:53;15.4;37.5
78461;SHT31;67755;51.986;5.696;2023-04-25T14:41:23;15.4;36.5
78461;SHT31;67755;51.986;5.696;2023-04-25T14:43:53;15.4;37.0
78461;SHT31;67755;51.986;5.696;2023-04-25T14:46:24;15.4;36.5
78461;SHT31;67755;51.986;5.696;2023-04-25T14:48:54;15.4;37.2
78461;SHT31;67755;51.986;5.696;2023-04-25T14:51:24;15.4;36.5
78461;SHT31;67755;51.986;5.696;2023-04-25T14:53:53;15.4;37.3
78461;SHT31;67755;51.986;5.696;2023-04-25T14:56:23;15.4;38.7
78461;SHT31;67755;51.986;5.696;2023-04-25T14:58:53;15.5;35.5
78461;SHT31;67755;51.986;5.696;2023-04-25T15:01:23;15.5;35.6
78461;SHT31;67755;51.986;5.696;2023-04-25T15:03:53;15.6;34.9
78461;SHT31;67755;51.986;5.696;2023-04-25T15:06:23;15.6;34.2
78461;SHT31;67755;51.986;5.696;2023-04-25T15:08:54;15.6;35.3
78461;SHT31;67755;51.986;5.696;2023-04-25T15:11:24;15.7;36.0
78461;SHT31;67755;51.986;5.696;2023-04-25T15:13:56;15.7;36.5
78461;SHT31;67755;51.986;5.696;2023-04-25T15:16:25;15.7;35.7
78461;SHT31;67755;51.986;5.696;2023-04-25T15:18:55;15.7;35.4
78461;SHT31;67755;51.986;5.696;2023-04-25T15:21:27;15.6;35.7
78461;SHT31;67755;51.986;5.696;2023-04-25T15:23:56;15.6;36.4
78461;SHT31;67755;51.986;5.696;2023-04-25T15:26:27;15.5;36.6
78461;SHT31;67755;51.986;5.696;2023-04-25T15:28:57;15.5;38.0
78461;SHT31;67755;51.986;5.696;2023-04-25T15:31:26;15.4;37.2
78461;SHT31;67755;51.986;5.696;2023-04-25T15:33:56;15.4;38.4
78461;SHT31;67755;51.986;5.696;2023-04-25T15:36:26;15.3;37.5
78461;SHT31;67755;51.986;5.696;2023-04-25T15:38:55;15.3;37.5
78461;SHT31;67755;51.986;5.696;2023-04-25T15:41:25;15.2;38.6
78461;SHT31;67755;51.986;5.696;2023-04-25T15:43:55;15.1;37.9
78461;SHT31;67755;51.986;5.696;2023-04-25T15:46:24;15.1;37.2
78461;SHT31;67755;51.986;5.696;2023-04-25T15:48:54;15.1;37.2
78461;SHT31;67755;51.986;5.696;2023-04-25T15:51:24;15.0;36.4
78461;SHT31;67755;51.986;5.696;2023-04-25T15:53:54;15.0;37.5
78461;SHT31;67755;51.986;5.696;2023-04-25T15:56:24;14.9;36.8
78461;SHT31;67755;51.986;5.696;2023-04-25T15:58:54;14.8;37.5
78461;SHT31;67755;51.986;5.696;2023-04-25T16:01:24;14.8;37.2
78461;SHT31;67755;51.986;5.696;2023-04-25T16:03:57;14.7;37.7
78461;SHT31;67755;51.986;5.696;2023-04-25T16:06:27;14.7;39.2
78461;SHT31;67755;51.986;5.696;2023-04-25T16:08:57;14.6;39.0
78461;SHT31;67755;51.986;5.696;2023-04-25T16:11:28;14.6;37.5
78461;SHT31;67755;51.986;5.696;2023-04-25T16:13:57;14.6;38.2
78461;SHT31;67755;51.986;5.696;2023-04-25T16:16:27;14.5;39.4
78461;SHT31;67755;51.986;5.696;2023-04-25T16:18:57;14.5;37.7
78461;SHT31;67755;51.986;5.696;2023-04-25T16:21:27;14.5;37.7
78461;SHT31;67755;51.986;5.696;2023-04-25T16:23:57;14.4;37.9